sensor_id;sensor_type;location;lat;lon;timestamp;P1;durP1;ratioP1;P2;durP2;ratioP2
47657;SDS011;33958;48.404;10.598;2022-09-09T00:01:04;4.43;;;1.60;;
47657;SDS011;33958;48.404;10.598;2022-09-09T00:06:44;4.85;;;1.33;;
47657;SDS011;33958;48.404;10.598;2022-09-09T00:09:17;3.90;;;1.67;;
47657;SDS011;33958;48.404;10.598;2022-09-09T00:11:54;3.72;;;1.60;;
47657;SDS011;33958;48.404;10.598;2022-09-09T00:17:42;7.93;;;1.90;;
47657;SDS011;33958;48.404;10.598;2022-09-09T00:22:40;5.25;;;1.77;;
47657;SDS011;33958;48.404;10.598;2022-09-09T00:25:15;2.40;;;1.30;;
47657;SDS011;33958;48.404;10.598;2022-09-09T00:27:55;6.10;;;1.92;;
47657;SDS011;33958;48.404;10.598;2022-09-09T00:30:24;4.50;;;1.30;;
47657;SDS011;33958;48.404;10.598;2022-09-09T00:33:05;6.85;;;1.58;;
47657;SDS011;33958;48.404;10.598;2022-09-09T00:35:45;4.47;;;1.42;;
47657;SDS011;33958;48.404;10.598;2022-09-09T00:38:19;1.48;;;1.02;;
47657;SDS011;33958;48.404;10.598;2022-09-09T00:40:52;4.15;;;1.50;;
47657;SDS011;33958;48.404;10.598;2022-09-09T00:48:40;6.13;;;1.42;;
47657;SDS011;33958;48.404;10.598;2022-09-09T00:51:44;6.90;;;1.58;;
47657;SDS011;33958;48.404;10.598;2022-09-09T00:57:31;4.53;;;1.67;;
47657;SDS011;33958;48.404;10.598;2022-09-09T01:06:01;11.38;;;1.60;;
47657;SDS011;33958;48.404;10.598;2022-09-09T01:17:02;4.25;;;1.25;;
47657;SDS011;33958;48.404;10.598;2022-09-09T01:22:12;5.13;;;1.25;;
47657;SDS011;33958;48.404;10.598;2022-09-09T01:27:20;3.38;;;1.35;;
47657;SDS011;33958;48.404;10.598;2022-09-09T01:29:49;3.50;;;1.63;;
47657;SDS011;33958;48.404;10.598;2022-09-09T01:35:11;4.95;;;1.67;;
47657;SDS011;33958;48.404;10.598;2022-09-09T01:37:44;6.95;;;1.70;;
47657;SDS011;33958;48.404;10.598;2022-09-09T01:40:11;3.38;;;1.63;;
47657;SDS011;33958;48.404;10.598;2022-09-09T01:42:38;4.70;;;1.65;;
47657;SDS011;33958;48.404;10.598;2022-09-09T01:45:05;6.20;;;1.80;;
47657;SDS011;33958;48.404;10.598;2022-09-09T01:47:33;5.53;;;1.88;;
47657;SDS011;33958;48.404;10.598;2022-09-09T01:50:00;2.90;;;1.33;;
47657;SDS011;33958;48.404;10.598;2022-09-09T01:52:29;6.53;;;2.08;;
47657;SDS011;33958;48.404;10.598;2022-09-09T01:55:00;4.43;;;1.77;;
47657;SDS011;33958;48.404;10.598;2022-09-09T01:57:27;2.92;;;1.30;;
47657;SDS011;33958;48.404;10.598;2022-09-09T02:00:05;4.63;;;1.98;;
47657;SDS011;33958;48.404;10.598;2022-09-09T02:08:08;4.07;;;1.58;;
47657;SDS011;33958;48.404;10.598;2022-09-09T02:10:46;4.78;;;1.40;;
47657;SDS011;33958;48.404;10.598;2022-09-09T02:13:21;3.67;;;1.30;;
47657;SDS011;33958;48.404;10.598;2022-09-09T02:21:22;2.97;;;1.33;;
47657;SDS011;33958;48.404;10.598;2022-09-09T02:23:51;5.32;;;1.77;;
47657;SDS011;33958;48.404;10.598;2022-09-09T02:26:19;3.15;;;1.65;;
47657;SDS011;33958;48.404;10.598;2022-09-09T02:28:50;8.43;;;1.90;;
47657;SDS011;33958;48.404;10.598;2022-09-09T02:31:17;12.18;;;1.95;;
47657;SDS011;33958;48.404;10.598;2022-09-09T02:33:48;4.25;;;1.90;;
47657;SDS011;33958;48.404;10.598;2022-09-09T02:36:20;5.55;;;1.92;;
47657;SDS011;33958;48.404;10.598;2022-09-09T02:38:51;5.10;;;1.75;;
47657;SDS011;33958;48.404;10.598;2022-09-09T02:41:20;4.30;;;1.80;;
47657;SDS011;33958;48.404;10.598;2022-09-09T02:43:52;4.15;;;1.90;;
47657;SDS011;33958;48.404;10.598;2022-09-09T02:49:03;6.13;;;1.75;;
47657;SDS011;33958;48.404;10.598;2022-09-09T02:54:31;3.30;;;1.23;;
47657;SDS011;33958;48.404;10.598;2022-09-09T02:57:13;2.97;;;1.50;;
47657;SDS011;33958;48.404;10.598;2022-09-09T02:59:45;6.18;;;1.40;;
47657;SDS011;33958;48.404;10.598;2022-09-09T03:02:13;4.50;;;1.50;;
47657;SDS011;33958;48.404;10.598;2022-09-09T03:04:40;4.25;;;1.40;;
47657;SDS011;33958;48.404;10.598;2022-09-09T03:07:10;3.67;;;1.55;;
47657;SDS011;33958;48.404;10.598;2022-09-09T03:09:38;5.10;;;1.55;;
47657;SDS011;33958;48.404;10.598;2022-09-09T03:12:05;5.85;;;1.77;;
47657;SDS011;33958;48.404;10.598;2022-09-09T03:14:33;3.75;;;1.88;;
47657;SDS011;33958;48.404;10.598;2022-09-09T03:17:00;3.95;;;1.83;;
47657;SDS011;33958;48.404;10.598;2022-09-09T03:19:28;3.22;;;1.83;;
47657;SDS011;33958;48.404;10.598;2022-09-09T03:21:56;2.50;;;1.40;;
47657;SDS011;33958;48.404;10.598;2022-09-09T03:24:24;5.18;;;1.65;;
47657;SDS011;33958;48.404;10.598;2022-09-09T03:26:51;5.35;;;1.50;;
47657;SDS011;33958;48.404;10.598;2022-09-09T03:29:18;6.55;;;1.55;;
47657;SDS011;33958;48.404;10.598;2022-09-09T03:31:45;2.58;;;1.50;;
47657;SDS011;33958;48.404;10.598;2022-09-09T03:34:12;4.63;;;1.35;;
47657;SDS011;33958;48.404;10.598;2022-09-09T03:36:40;4.53;;;1.33;;
47657;SDS011;33958;48.404;10.598;2022-09-09T03:39:07;2.42;;;1.30;;
47657;SDS011;33958;48.404;10.598;2022-09-09T03:41:34;5.22;;;1.60;;
47657;SDS011;33958;48.404;10.598;2022-09-09T03:44:01;3.72;;;1.60;;
47657;SDS011;33958;48.404;10.598;2022-09-09T03:46:28;5.93;;;1.85;;
47657;SDS011;33958;48.404;10.598;2022-09-09T03:48:56;3.85;;;1.40;;
47657;SDS011;33958;48.404;10.598;2022-09-09T03:51:23;5.05;;;1.48;;
47657;SDS011;33958;48.404;10.598;2022-09-09T03:53:50;7.47;;;1.42;;
47657;SDS011;33958;48.404;10.598;2022-09-09T03:56:17;3.42;;;1.35;;
47657;SDS011;33958;48.404;10.598;2022-09-09T03:58:44;5.65;;;1.52;;
47657;SDS011;33958;48.404;10.598;2022-09-09T04:01:11;2.67;;;1.25;;
47657;SDS011;33958;48.404;10.598;2022-09-09T04:03:40;2.65;;;1.23;;
47657;SDS011;33958;48.404;10.598;2022-09-09T04:06:07;3.38;;;1.30;;
47657;SDS011;33958;48.404;10.598;2022-09-09T04:08:36;2.10;;;1.27;;
47657;SDS011;33958;48.404;10.598;2022-09-09T04:11:05;4.68;;;1.70;;
47657;SDS011;33958;48.404;10.598;2022-09-09T04:13:36;2.92;;;1.52;;
47657;SDS011;33958;48.404;10.598;2022-09-09T04:16:05;7.47;;;1.70;;
47657;SDS011;33958;48.404;10.598;2022-09-09T04:18:32;4.53;;;2.28;;
47657;SDS011;33958;48.404;10.598;2022-09-09T04:21:01;3.83;;;1.80;;
47657;SDS011;33958;48.404;10.598;2022-09-09T04:23:28;9.10;;;2.40;;
47657;SDS011;33958;48.404;10.598;2022-09-09T04:25:56;9.02;;;3.28;;
47657;SDS011;33958;48.404;10.598;2022-09-09T04:28:25;3.90;;;1.75;;
47657;SDS011;33958;48.404;10.598;2022-09-09T04:30:54;3.83;;;1.77;;
47657;SDS011;33958;48.404;10.598;2022-09-09T04:33:23;6.78;;;1.58;;
47657;SDS011;33958;48.404;10.598;2022-09-09T04:35:52;4.90;;;1.80;;
47657;SDS011;33958;48.404;10.598;2022-09-09T04:38:20;7.93;;;1.80;;
47657;SDS011;33958;48.404;10.598;2022-09-09T04:40:50;3.17;;;1.40;;
47657;SDS011;33958;48.404;10.598;2022-09-09T04:43:17;4.13;;;1.73;;
47657;SDS011;33958;48.404;10.598;2022-09-09T04:45:49;3.88;;;1.63;;
47657;SDS011;33958;48.404;10.598;2022-09-09T04:48:20;3.80;;;1.60;;
47657;SDS011;33958;48.404;10.598;2022-09-09T04:51:21;4.63;;;1.80;;
47657;SDS011;33958;48.404;10.598;2022-09-09T04:53:41;5.70;;;1.60;;
47657;SDS011;33958;48.404;10.598;2022-09-09T04:56:12;4.15;;;1.83;;
47657;SDS011;33958;48.404;10.598;2022-09-09T04:58:41;4.57;;;1.80;;
47657;SDS011;33958;48.404;10.598;2022-09-09T05:01:13;7.50;;;3.03;;
47657;SDS011;33958;48.404;10.598;2022-09-09T05:03:43;8.98;;;2.83;;
47657;SDS011;33958;48.404;10.598;2022-09-09T05:06:14;5.68;;;2.30;;
47657;SDS011;33958;48.404;10.598;2022-09-09T05:08:43;7.75;;;2.17;;
47657;SDS011;33958;48.404;10.598;2022-09-09T05:11:17;6.53;;;2.05;;
47657;SDS011;33958;48.404;10.598;2022-09-09T05:13:46;3.65;;;1.98;;
47657;SDS011;33958;48.404;10.598;2022-09-09T05:16:13;6.50;;;2.03;;
47657;SDS011;33958;48.404;10.598;2022-09-09T05:18:40;2.90;;;1.70;;
47657;SDS011;33958;48.404;10.598;2022-09-09T05:21:10;5.00;;;1.90;;
47657;SDS011;33958;48.404;10.598;2022-09-09T05:23:38;5.80;;;2.50;;
47657;SDS011;33958;48.404;10.598;2022-09-09T05:26:05;6.05;;;2.17;;
47657;SDS011;33958;48.404;10.598;2022-09-09T05:28:34;7.88;;;2.90;;
47657;SDS011;33958;48.404;10.598;2022-09-09T05:31:03;3.63;;;1.98;;
47657;SDS011;33958;48.404;10.598;2022-09-09T05:33:34;5.32;;;1.83;;
47657;SDS011;33958;48.404;10.598;2022-09-09T05:36:06;2.85;;;1.60;;
47657;SDS011;33958;48.404;10.598;2022-09-09T05:38:34;4.20;;;1.77;;
47657;SDS011;33958;48.404;10.598;2022-09-09T05:41:02;5.68;;;2.00;;
47657;SDS011;33958;48.404;10.598;2022-09-09T05:43:29;3.25;;;1.70;;
47657;SDS011;33958;48.404;10.598;2022-09-09T05:45:58;3.95;;;1.60;;
47657;SDS011;33958;48.404;10.598;2022-09-09T05:48:34;4.68;;;2.00;;
47657;SDS011;33958;48.404;10.598;2022-09-09T05:51:13;5.82;;;1.90;;
47657;SDS011;33958;48.404;10.598;2022-09-09T05:53:45;5.03;;;1.48;;
47657;SDS011;33958;48.404;10.598;2022-09-09T05:56:16;9.90;;;1.90;;
47657;SDS011;33958;48.404;10.598;2022-09-09T05:58:54;5.65;;;1.73;;
47657;SDS011;33958;48.404;10.598;2022-09-09T06:01:23;3.92;;;1.75;;
47657;SDS011;33958;48.404;10.598;2022-09-09T06:03:58;3.53;;;1.65;;
47657;SDS011;33958;48.404;10.598;2022-09-09T06:06:26;3.40;;;1.60;;
47657;SDS011;33958;48.404;10.598;2022-09-09T06:08:56;3.83;;;1.50;;
47657;SDS011;33958;48.404;10.598;2022-09-09T06:11:26;4.05;;;1.55;;
47657;SDS011;33958;48.404;10.598;2022-09-09T06:13:57;6.72;;;1.60;;
47657;SDS011;33958;48.404;10.598;2022-09-09T06:16:26;7.90;;;1.40;;
47657;SDS011;33958;48.404;10.598;2022-09-09T06:18:54;5.65;;;1.60;;
47657;SDS011;33958;48.404;10.598;2022-09-09T06:21:26;4.38;;;1.50;;
47657;SDS011;33958;48.404;10.598;2022-09-09T06:23:56;2.92;;;1.38;;
47657;SDS011;33958;48.404;10.598;2022-09-09T06:26:30;4.60;;;1.58;;
47657;SDS011;33958;48.404;10.598;2022-09-09T06:28:59;3.60;;;1.80;;
47657;SDS011;33958;48.404;10.598;2022-09-09T06:31:27;4.70;;;1.90;;
47657;SDS011;33958;48.404;10.598;2022-09-09T06:33:57;4.38;;;1.73;;
47657;SDS011;33958;48.404;10.598;2022-09-09T06:36:25;2.95;;;1.73;;
47657;SDS011;33958;48.404;10.598;2022-09-09T06:38:54;6.05;;;1.77;;
47657;SDS011;33958;48.404;10.598;2022-09-09T06:41:21;6.07;;;2.20;;
47657;SDS011;33958;48.404;10.598;2022-09-09T06:43:51;5.53;;;1.95;;
47657;SDS011;33958;48.404;10.598;2022-09-09T06:46:19;5.22;;;2.08;;
47657;SDS011;33958;48.404;10.598;2022-09-09T06:48:48;4.07;;;2.20;;
47657;SDS011;33958;48.404;10.598;2022-09-09T06:51:18;3.22;;;1.70;;
47657;SDS011;33958;48.404;10.598;2022-09-09T06:53:50;7.88;;;1.92;;
47657;SDS011;33958;48.404;10.598;2022-09-09T06:56:21;5.78;;;1.65;;
47657;SDS011;33958;48.404;10.598;2022-09-09T06:58:59;3.40;;;1.65;;
47657;SDS011;33958;48.404;10.598;2022-09-09T07:01:31;5.43;;;2.00;;
47657;SDS011;33958;48.404;10.598;2022-09-09T07:04:00;6.15;;;1.92;;
47657;SDS011;33958;48.404;10.598;2022-09-09T07:06:29;5.78;;;1.70;;
47657;SDS011;33958;48.404;10.598;2022-09-09T07:08:58;4.35;;;1.92;;
47657;SDS011;33958;48.404;10.598;2022-09-09T07:11:27;6.20;;;2.30;;
47657;SDS011;33958;48.404;10.598;2022-09-09T07:13:59;5.35;;;1.40;;
47657;SDS011;33958;48.404;10.598;2022-09-09T07:16:26;5.38;;;1.88;;
47657;SDS011;33958;48.404;10.598;2022-09-09T07:18:55;2.50;;;1.57;;
47657;SDS011;33958;48.404;10.598;2022-09-09T07:21:26;8.43;;;1.55;;
47657;SDS011;33958;48.404;10.598;2022-09-09T07:23:55;6.22;;;1.80;;
47657;SDS011;33958;48.404;10.598;2022-09-09T07:26:23;3.80;;;1.67;;
47657;SDS011;33958;48.404;10.598;2022-09-09T07:28:52;4.13;;;1.83;;
47657;SDS011;33958;48.404;10.598;2022-09-09T07:31:26;4.63;;;1.75;;
47657;SDS011;33958;48.404;10.598;2022-09-09T07:33:54;3.78;;;1.38;;
47657;SDS011;33958;48.404;10.598;2022-09-09T07:36:22;3.53;;;1.90;;
47657;SDS011;33958;48.404;10.598;2022-09-09T07:38:56;6.93;;;2.20;;
47657;SDS011;33958;48.404;10.598;2022-09-09T07:43:58;5.18;;;2.13;;
47657;SDS011;33958;48.404;10.598;2022-09-09T07:46:25;4.15;;;1.83;;
47657;SDS011;33958;48.404;10.598;2022-09-09T07:48:53;7.13;;;2.30;;
47657;SDS011;33958;48.404;10.598;2022-09-09T07:51:23;5.28;;;1.90;;
47657;SDS011;33958;48.404;10.598;2022-09-09T07:53:56;3.88;;;1.80;;
47657;SDS011;33958;48.404;10.598;2022-09-09T07:56:24;5.55;;;1.60;;
47657;SDS011;33958;48.404;10.598;2022-09-09T07:58:54;6.90;;;1.48;;
47657;SDS011;33958;48.404;10.598;2022-09-09T08:01:22;3.38;;;1.58;;
47657;SDS011;33958;48.404;10.598;2022-09-09T08:04:02;3.08;;;1.45;;
47657;SDS011;33958;48.404;10.598;2022-09-09T08:06:31;5.35;;;1.33;;
47657;SDS011;33958;48.404;10.598;2022-09-09T08:09:03;8.32;;;1.75;;
47657;SDS011;33958;48.404;10.598;2022-09-09T08:11:31;5.15;;;1.65;;
47657;SDS011;33958;48.404;10.598;2022-09-09T08:14:04;5.03;;;1.80;;
47657;SDS011;33958;48.404;10.598;2022-09-09T08:16:34;3.97;;;1.47;;
47657;SDS011;33958;48.404;10.598;2022-09-09T08:19:06;5.07;;;1.60;;
47657;SDS011;33958;48.404;10.598;2022-09-09T08:21:34;4.63;;;1.33;;
47657;SDS011;33958;48.404;10.598;2022-09-09T08:24:03;3.45;;;1.25;;
47657;SDS011;33958;48.404;10.598;2022-09-09T08:26:32;1.98;;;0.80;;
47657;SDS011;33958;48.404;10.598;2022-09-09T08:29:10;2.83;;;1.00;;
47657;SDS011;33958;48.404;10.598;2022-09-09T08:31:40;6.50;;;1.60;;
47657;SDS011;33958;48.404;10.598;2022-09-09T08:34:07;2.40;;;0.85;;
47657;SDS011;33958;48.404;10.598;2022-09-09T08:36:42;3.28;;;0.70;;
47657;SDS011;33958;48.404;10.598;2022-09-09T08:39:10;5.72;;;0.80;;
47657;SDS011;33958;48.404;10.598;2022-09-09T08:52:30;3.47;;;0.80;;
47657;SDS011;33958;48.404;10.598;2022-09-09T08:55:13;2.95;;;0.95;;
47657;SDS011;33958;48.404;10.598;2022-09-09T08:57:57;2.63;;;0.80;;
47657;SDS011;33958;48.404;10.598;2022-09-09T09:00:34;1.48;;;0.80;;
47657;SDS011;33958;48.404;10.598;2022-09-09T09:11:38;2.45;;;0.85;;
47657;SDS011;33958;48.404;10.598;2022-09-09T09:19:23;3.97;;;1.05;;
47657;SDS011;33958;48.404;10.598;2022-09-09T09:21:54;1.52;;;0.60;;
47657;SDS011;33958;48.404;10.598;2022-09-09T09:27:00;3.13;;;1.02;;
47657;SDS011;33958;48.404;10.598;2022-09-09T09:29:39;1.57;;;0.67;;
47657;SDS011;33958;48.404;10.598;2022-09-09T09:32:31;3.22;;;0.80;;
47657;SDS011;33958;48.404;10.598;2022-09-09T09:35:00;4.22;;;0.70;;
47657;SDS011;33958;48.404;10.598;2022-09-09T09:37:34;2.15;;;0.63;;
47657;SDS011;33958;48.404;10.598;2022-09-09T09:40:11;0.45;;;0.45;;
47657;SDS011;33958;48.404;10.598;2022-09-09T09:45:34;2.85;;;0.60;;
47657;SDS011;33958;48.404;10.598;2022-09-09T09:48:20;2.88;;;0.63;;
47657;SDS011;33958;48.404;10.598;2022-09-09T09:50:49;3.10;;;0.90;;
47657;SDS011;33958;48.404;10.598;2022-09-09T09:56:02;2.10;;;0.68;;
47657;SDS011;33958;48.404;10.598;2022-09-09T09:58:35;2.13;;;1.20;;
47657;SDS011;33958;48.404;10.598;2022-09-09T10:01:46;1.20;;;0.77;;
47657;SDS011;33958;48.404;10.598;2022-09-09T10:06:44;1.67;;;0.57;;
47657;SDS011;33958;48.404;10.598;2022-09-09T10:17:15;2.80;;;0.80;;
47657;SDS011;33958;48.404;10.598;2022-09-09T10:20:11;2.70;;;0.80;;
47657;SDS011;33958;48.404;10.598;2022-09-09T10:28:58;2.38;;;0.60;;
47657;SDS011;33958;48.404;10.598;2022-09-09T10:36:57;1.52;;;0.63;;
47657;SDS011;33958;48.404;10.598;2022-09-09T10:39:35;4.60;;;0.77;;
47657;SDS011;33958;48.404;10.598;2022-09-09T10:44:42;3.58;;;0.80;;
47657;SDS011;33958;48.404;10.598;2022-09-09T10:53:28;2.63;;;0.65;;
47657;SDS011;33958;48.404;10.598;2022-09-09T10:56:22;4.20;;;0.90;;
47657;SDS011;33958;48.404;10.598;2022-09-09T10:58:52;3.28;;;1.05;;
47657;SDS011;33958;48.404;10.598;2022-09-09T11:01:26;9.68;;;0.93;;
47657;SDS011;33958;48.404;10.598;2022-09-09T11:04:05;2.30;;;0.68;;
47657;SDS011;33958;48.404;10.598;2022-09-09T11:06:39;4.50;;;0.95;;
47657;SDS011;33958;48.404;10.598;2022-09-09T11:09:13;1.90;;;0.60;;
47657;SDS011;33958;48.404;10.598;2022-09-09T11:11:54;4.85;;;2.15;;
47657;SDS011;33958;48.404;10.598;2022-09-09T11:17:31;3.45;;;0.63;;
47657;SDS011;33958;48.404;10.598;2022-09-09T11:20:06;3.67;;;0.70;;
47657;SDS011;33958;48.404;10.598;2022-09-09T11:22:40;4.82;;;0.70;;
47657;SDS011;33958;48.404;10.598;2022-09-09T11:25:20;2.22;;;0.70;;
47657;SDS011;33958;48.404;10.598;2022-09-09T11:30:38;2.85;;;0.90;;
47657;SDS011;33958;48.404;10.598;2022-09-09T11:33:33;2.90;;;0.73;;
47657;SDS011;33958;48.404;10.598;2022-09-09T11:39:29;2.60;;;0.65;;
47657;SDS011;33958;48.404;10.598;2022-09-09T11:42:24;2.65;;;0.68;;
47657;SDS011;33958;48.404;10.598;2022-09-09T11:44:51;4.18;;;0.85;;
47657;SDS011;33958;48.404;10.598;2022-09-09T11:47:30;3.80;;;0.52;;
47657;SDS011;33958;48.404;10.598;2022-09-09T11:50:10;4.75;;;0.73;;
47657;SDS011;33958;48.404;10.598;2022-09-09T11:53:04;1.60;;;0.50;;
47657;SDS011;33958;48.404;10.598;2022-09-09T11:55:40;1.67;;;0.60;;
47657;SDS011;33958;48.404;10.598;2022-09-09T12:06:19;2.40;;;0.50;;
47657;SDS011;33958;48.404;10.598;2022-09-09T12:08:56;6.50;;;0.82;;
47657;SDS011;33958;48.404;10.598;2022-09-09T12:11:31;4.35;;;0.75;;
47657;SDS011;33958;48.404;10.598;2022-09-09T12:13:59;3.33;;;0.68;;
47657;SDS011;33958;48.404;10.598;2022-09-09T12:16:33;2.03;;;0.43;;
47657;SDS011;33958;48.404;10.598;2022-09-09T12:22:04;1.67;;;0.60;;
47657;SDS011;33958;48.404;10.598;2022-09-09T12:24:41;2.25;;;0.68;;
47657;SDS011;33958;48.404;10.598;2022-09-09T12:29:49;8.07;;;0.70;;
47657;SDS011;33958;48.404;10.598;2022-09-09T12:32:24;1.10;;;0.40;;
47657;SDS011;33958;48.404;10.598;2022-09-09T12:34:53;0.82;;;0.40;;
47657;SDS011;33958;48.404;10.598;2022-09-09T12:45:43;1.27;;;0.75;;
47657;SDS011;33958;48.404;10.598;2022-09-09T12:48:11;3.92;;;0.90;;
47657;SDS011;33958;48.404;10.598;2022-09-09T12:50:45;3.05;;;0.65;;
47657;SDS011;33958;48.404;10.598;2022-09-09T12:53:29;2.75;;;0.70;;
47657;SDS011;33958;48.404;10.598;2022-09-09T12:56:03;5.80;;;1.10;;
47657;SDS011;33958;48.404;10.598;2022-09-09T12:58:33;3.30;;;0.75;;
47657;SDS011;33958;48.404;10.598;2022-09-09T13:01:03;1.95;;;0.57;;
47657;SDS011;33958;48.404;10.598;2022-09-09T13:03:32;3.63;;;1.00;;
47657;SDS011;33958;48.404;10.598;2022-09-09T13:06:12;3.03;;;0.80;;
47657;SDS011;33958;48.404;10.598;2022-09-09T13:08:44;1.80;;;0.77;;
47657;SDS011;33958;48.404;10.598;2022-09-09T13:11:12;3.03;;;0.85;;
47657;SDS011;33958;48.404;10.598;2022-09-09T13:13:43;3.55;;;0.88;;
47657;SDS011;33958;48.404;10.598;2022-09-09T13:16:19;3.50;;;0.93;;
47657;SDS011;33958;48.404;10.598;2022-09-09T13:18:52;2.70;;;0.85;;
47657;SDS011;33958;48.404;10.598;2022-09-09T13:21:19;3.15;;;0.85;;
47657;SDS011;33958;48.404;10.598;2022-09-09T13:23:58;2.53;;;0.70;;
47657;SDS011;33958;48.404;10.598;2022-09-09T13:26:29;4.75;;;0.68;;
47657;SDS011;33958;48.404;10.598;2022-09-09T13:29:07;3.53;;;0.80;;
47657;SDS011;33958;48.404;10.598;2022-09-09T13:31:44;6.20;;;1.00;;
47657;SDS011;33958;48.404;10.598;2022-09-09T13:34:12;3.28;;;0.90;;
47657;SDS011;33958;48.404;10.598;2022-09-09T13:37:17;3.05;;;1.00;;
47657;SDS011;33958;48.404;10.598;2022-09-09T13:39:57;7.85;;;1.10;;
47657;SDS011;33958;48.404;10.598;2022-09-09T13:42:26;4.70;;;1.40;;
47657;SDS011;33958;48.404;10.598;2022-09-09T13:47:30;3.67;;;0.70;;
47657;SDS011;33958;48.404;10.598;2022-09-09T13:50:09;3.15;;;0.90;;
47657;SDS011;33958;48.404;10.598;2022-09-09T13:52:45;3.17;;;0.70;;
47657;SDS011;33958;48.404;10.598;2022-09-09T13:55:13;2.13;;;0.80;;
47657;SDS011;33958;48.404;10.598;2022-09-09T13:57:49;3.20;;;1.00;;
47657;SDS011;33958;48.404;10.598;2022-09-09T14:00:17;2.80;;;1.10;;
47657;SDS011;33958;48.404;10.598;2022-09-09T14:02:45;3.70;;;0.88;;
47657;SDS011;33958;48.404;10.598;2022-09-09T14:05:13;5.97;;;1.50;;
47657;SDS011;33958;48.404;10.598;2022-09-09T14:07:41;2.88;;;0.80;;
47657;SDS011;33958;48.404;10.598;2022-09-09T14:10:09;2.88;;;0.88;;
47657;SDS011;33958;48.404;10.598;2022-09-09T14:12:38;3.15;;;1.00;;
47657;SDS011;33958;48.404;10.598;2022-09-09T14:15:05;1.52;;;0.65;;
47657;SDS011;33958;48.404;10.598;2022-09-09T14:17:34;1.05;;;0.60;;
47657;SDS011;33958;48.404;10.598;2022-09-09T14:20:03;2.58;;;0.70;;
47657;SDS011;33958;48.404;10.598;2022-09-09T14:22:38;5.57;;;0.85;;
47657;SDS011;33958;48.404;10.598;2022-09-09T14:25:07;2.33;;;0.85;;
47657;SDS011;33958;48.404;10.598;2022-09-09T14:27:34;4.38;;;0.73;;
47657;SDS011;33958;48.404;10.598;2022-09-09T14:30:01;3.10;;;0.70;;
47657;SDS011;33958;48.404;10.598;2022-09-09T14:32:29;3.63;;;1.05;;
47657;SDS011;33958;48.404;10.598;2022-09-09T14:34:55;1.73;;;0.60;;
47657;SDS011;33958;48.404;10.598;2022-09-09T14:37:22;4.65;;;0.80;;
47657;SDS011;33958;48.404;10.598;2022-09-09T14:39:50;1.20;;;0.50;;
47657;SDS011;33958;48.404;10.598;2022-09-09T14:42:17;2.28;;;0.68;;
47657;SDS011;33958;48.404;10.598;2022-09-09T14:44:45;1.48;;;0.47;;
47657;SDS011;33958;48.404;10.598;2022-09-09T14:47:11;3.58;;;0.70;;
47657;SDS011;33958;48.404;10.598;2022-09-09T14:49:38;2.05;;;0.70;;
47657;SDS011;33958;48.404;10.598;2022-09-09T14:52:10;2.47;;;0.77;;
47657;SDS011;33958;48.404;10.598;2022-09-09T14:54:37;4.82;;;0.70;;
47657;SDS011;33958;48.404;10.598;2022-09-09T14:57:04;1.85;;;0.60;;
47657;SDS011;33958;48.404;10.598;2022-09-09T14:59:31;3.80;;;0.82;;
47657;SDS011;33958;48.404;10.598;2022-09-09T15:01:58;3.63;;;0.60;;
47657;SDS011;33958;48.404;10.598;2022-09-09T15:04:27;2.00;;;0.60;;
47657;SDS011;33958;48.404;10.598;2022-09-09T15:06:53;1.90;;;0.60;;
47657;SDS011;33958;48.404;10.598;2022-09-09T15:09:20;2.42;;;0.63;;
47657;SDS011;33958;48.404;10.598;2022-09-09T15:11:47;2.05;;;0.82;;
47657;SDS011;33958;48.404;10.598;2022-09-09T15:14:14;3.05;;;0.73;;
47657;SDS011;33958;48.404;10.598;2022-09-09T15:16:41;1.73;;;0.63;;
47657;SDS011;33958;48.404;10.598;2022-09-09T15:19:08;2.30;;;0.60;;
47657;SDS011;33958;48.404;10.598;2022-09-09T15:21:36;3.28;;;0.50;;
47657;SDS011;33958;48.404;10.598;2022-09-09T15:24:04;3.38;;;0.80;;
47657;SDS011;33958;48.404;10.598;2022-09-09T15:26:33;6.10;;;1.15;;
47657;SDS011;33958;48.404;10.598;2022-09-09T15:29:01;1.63;;;0.60;;
47657;SDS011;33958;48.404;10.598;2022-09-09T15:31:29;3.35;;;0.93;;
47657;SDS011;33958;48.404;10.598;2022-09-09T15:33:59;2.58;;;0.93;;
47657;SDS011;33958;48.404;10.598;2022-09-09T15:36:31;5.68;;;0.93;;
47657;SDS011;33958;48.404;10.598;2022-09-09T15:39:07;1.35;;;0.50;;
47657;SDS011;33958;48.404;10.598;2022-09-09T15:41:39;2.17;;;0.77;;
47657;SDS011;33958;48.404;10.598;2022-09-09T15:44:06;1.35;;;0.70;;
47657;SDS011;33958;48.404;10.598;2022-09-09T15:46:37;3.63;;;0.93;;
47657;SDS011;33958;48.404;10.598;2022-09-09T15:49:31;4.40;;;0.85;;
47657;SDS011;33958;48.404;10.598;2022-09-09T15:51:57;3.53;;;0.75;;
47657;SDS011;33958;48.404;10.598;2022-09-09T15:54:31;2.97;;;0.80;;
47657;SDS011;33958;48.404;10.598;2022-09-09T15:57:00;3.47;;;0.70;;
47657;SDS011;33958;48.404;10.598;2022-09-09T15:59:29;2.25;;;0.60;;
47657;SDS011;33958;48.404;10.598;2022-09-09T16:01:57;1.25;;;0.80;;
47657;SDS011;33958;48.404;10.598;2022-09-09T16:04:27;3.60;;;0.70;;
47657;SDS011;33958;48.404;10.598;2022-09-09T16:06:58;4.25;;;0.70;;
47657;SDS011;33958;48.404;10.598;2022-09-09T16:09:26;1.40;;;0.70;;
47657;SDS011;33958;48.404;10.598;2022-09-09T16:11:57;3.95;;;0.95;;
47657;SDS011;33958;48.404;10.598;2022-09-09T16:14:27;2.50;;;0.93;;
47657;SDS011;33958;48.404;10.598;2022-09-09T16:16:54;1.83;;;0.63;;
47657;SDS011;33958;48.404;10.598;2022-09-09T16:19:21;1.95;;;0.70;;
47657;SDS011;33958;48.404;10.598;2022-09-09T16:21:49;3.40;;;0.85;;
47657;SDS011;33958;48.404;10.598;2022-09-09T16:24:18;2.80;;;0.70;;
47657;SDS011;33958;48.404;10.598;2022-09-09T16:26:47;3.20;;;0.80;;
47657;SDS011;33958;48.404;10.598;2022-09-09T16:29:16;3.58;;;0.95;;
47657;SDS011;33958;48.404;10.598;2022-09-09T16:31:45;2.65;;;0.60;;
47657;SDS011;33958;48.404;10.598;2022-09-09T16:34:13;4.88;;;0.70;;
47657;SDS011;33958;48.404;10.598;2022-09-09T16:36:44;2.05;;;0.50;;
47657;SDS011;33958;48.404;10.598;2022-09-09T16:39:14;2.60;;;0.60;;
47657;SDS011;33958;48.404;10.598;2022-09-09T16:41:43;1.42;;;0.82;;
47657;SDS011;33958;48.404;10.598;2022-09-09T16:44:11;3.10;;;0.77;;
47657;SDS011;33958;48.404;10.598;2022-09-09T16:46:41;7.25;;;0.95;;
47657;SDS011;33958;48.404;10.598;2022-09-09T16:49:09;2.53;;;0.52;;
47657;SDS011;33958;48.404;10.598;2022-09-09T16:51:47;2.63;;;0.50;;
47657;SDS011;33958;48.404;10.598;2022-09-09T16:54:16;4.10;;;0.75;;
47657;SDS011;33958;48.404;10.598;2022-09-09T16:56:45;3.40;;;0.95;;
47657;SDS011;33958;48.404;10.598;2022-09-09T16:59:14;3.63;;;0.65;;
47657;SDS011;33958;48.404;10.598;2022-09-09T17:01:46;4.57;;;1.10;;
47657;SDS011;33958;48.404;10.598;2022-09-09T17:06:50;1.60;;;0.77;;
47657;SDS011;33958;48.404;10.598;2022-09-09T17:09:19;2.97;;;0.80;;
47657;SDS011;33958;48.404;10.598;2022-09-09T17:11:47;4.15;;;1.02;;
47657;SDS011;33958;48.404;10.598;2022-09-09T17:14:17;3.17;;;0.95;;
47657;SDS011;33958;48.404;10.598;2022-09-09T17:16:46;3.43;;;0.90;;
47657;SDS011;33958;48.404;10.598;2022-09-09T17:19:13;3.33;;;0.98;;
47657;SDS011;33958;48.404;10.598;2022-09-09T17:21:40;3.50;;;0.88;;
47657;SDS011;33958;48.404;10.598;2022-09-09T17:24:27;4.68;;;1.10;;
47657;SDS011;33958;48.404;10.598;2022-09-09T17:26:55;3.80;;;1.02;;
47657;SDS011;33958;48.404;10.598;2022-09-09T17:29:23;36.05;;;3.70;;
47657;SDS011;33958;48.404;10.598;2022-09-09T17:31:51;26.55;;;2.47;;
47657;SDS011;33958;48.404;10.598;2022-09-09T17:34:18;7.40;;;3.05;;
47657;SDS011;33958;48.404;10.598;2022-09-09T17:36:45;6.80;;;2.17;;